sensor_id;sensor_type;location;lat;lon;timestamp;P1;durP1;ratioP1;P2;durP2;ratioP2
70078;SDS011;57451;52.496;13.456;2022-10-16T00:01:15;6.30;;;3.20;;
70078;SDS011;57451;52.496;13.456;2022-10-16T00:03:44;5.75;;;3.40;;
70078;SDS011;57451;52.496;13.456;2022-10-16T00:06:13;5.32;;;3.10;;
70078;SDS011;57451;52.496;13.456;2022-10-16T00:08:44;5.50;;;3.22;;
70078;SDS011;57451;52.496;13.456;2022-10-16T00:11:12;4.80;;;3.05;;
70078;SDS011;57451;52.496;13.456;2022-10-16T00:13:42;6.07;;;3.30;;
70078;SDS011;57451;52.496;13.456;2022-10-16T00:16:10;5.65;;;3.05;;
70078;SDS011;57451;52.496;13.456;2022-10-16T00:18:40;4.97;;;3.05;;
70078;SDS011;57451;52.496;13.456;2022-10-16T00:21:09;6.72;;;3.15;;
70078;SDS011;57451;52.496;13.456;2022-10-16T00:23:38;6.10;;;3.00;;
70078;SDS011;57451;52.496;13.456;2022-10-16T00:26:09;5.60;;;2.70;;
70078;SDS011;57451;52.496;13.456;2022-10-16T00:28:39;5.10;;;2.75;;
70078;SDS011;57451;52.496;13.456;2022-10-16T00:31:07;7.03;;;3.00;;
70078;SDS011;57451;52.496;13.456;2022-10-16T00:33:36;5.75;;;2.80;;
70078;SDS011;57451;52.496;13.456;2022-10-16T00:36:05;5.32;;;2.70;;
70078;SDS011;57451;52.496;13.456;2022-10-16T00:38:33;6.27;;;2.80;;
70078;SDS011;57451;52.496;13.456;2022-10-16T00:41:01;5.97;;;2.97;;
70078;SDS011;57451;52.496;13.456;2022-10-16T00:43:37;6.38;;;2.85;;
70078;SDS011;57451;52.496;13.456;2022-10-16T00:46:09;6.25;;;2.83;;
70078;SDS011;57451;52.496;13.456;2022-10-16T00:48:42;4.60;;;2.50;;
70078;SDS011;57451;52.496;13.456;2022-10-16T00:51:12;4.47;;;2.47;;
70078;SDS011;57451;52.496;13.456;2022-10-16T00:53:40;5.78;;;2.60;;
70078;SDS011;57451;52.496;13.456;2022-10-16T00:56:08;4.13;;;2.40;;
70078;SDS011;57451;52.496;13.456;2022-10-16T00:58:36;5.25;;;2.60;;
70078;SDS011;57451;52.496;13.456;2022-10-16T01:01:04;5.47;;;2.58;;
70078;SDS011;57451;52.496;13.456;2022-10-16T01:03:32;4.97;;;2.60;;
70078;SDS011;57451;52.496;13.456;2022-10-16T01:09:11;4.95;;;2.28;;
70078;SDS011;57451;52.496;13.456;2022-10-16T01:11:44;4.90;;;2.55;;
70078;SDS011;57451;52.496;13.456;2022-10-16T01:14:21;4.47;;;2.42;;
70078;SDS011;57451;52.496;13.456;2022-10-16T01:16:55;5.30;;;2.47;;
70078;SDS011;57451;52.496;13.456;2022-10-16T01:19:32;4.75;;;2.40;;
70078;SDS011;57451;52.496;13.456;2022-10-16T01:22:11;5.68;;;2.50;;
70078;SDS011;57451;52.496;13.456;2022-10-16T01:24:40;4.60;;;2.50;;
70078;SDS011;57451;52.496;13.456;2022-10-16T01:27:12;4.60;;;2.30;;
70078;SDS011;57451;52.496;13.456;2022-10-16T01:29:44;4.63;;;2.47;;
70078;SDS011;57451;52.496;13.456;2022-10-16T01:32:17;4.40;;;2.30;;
70078;SDS011;57451;52.496;13.456;2022-10-16T01:34:55;4.45;;;2.55;;
70078;SDS011;57451;52.496;13.456;2022-10-16T01:37:32;4.13;;;2.30;;
70078;SDS011;57451;52.496;13.456;2022-10-16T01:40:05;4.78;;;2.33;;
70078;SDS011;57451;52.496;13.456;2022-10-16T01:42:37;4.43;;;2.20;;
70078;SDS011;57451;52.496;13.456;2022-10-16T01:45:09;5.45;;;2.38;;
70078;SDS011;57451;52.496;13.456;2022-10-16T01:47:40;5.43;;;2.40;;
70078;SDS011;57451;52.496;13.456;2022-10-16T01:50:08;4.80;;;2.30;;
70078;SDS011;57451;52.496;13.456;2022-10-16T01:52:39;4.82;;;2.30;;
70078;SDS011;57451;52.496;13.456;2022-10-16T01:55:12;4.27;;;2.30;;
70078;SDS011;57451;52.496;13.456;2022-10-16T01:57:44;5.68;;;1.92;;
70078;SDS011;57451;52.496;13.456;2022-10-16T02:00:16;5.53;;;2.45;;
70078;SDS011;57451;52.496;13.456;2022-10-16T02:02:47;4.00;;;2.08;;
70078;SDS011;57451;52.496;13.456;2022-10-16T02:05:19;4.10;;;2.08;;
70078;SDS011;57451;52.496;13.456;2022-10-16T02:07:50;4.33;;;2.23;;
70078;SDS011;57451;52.496;13.456;2022-10-16T02:10:17;5.13;;;2.03;;
70078;SDS011;57451;52.496;13.456;2022-10-16T02:12:48;6.95;;;2.20;;
70078;SDS011;57451;52.496;13.456;2022-10-16T02:15:21;4.50;;;2.00;;
70078;SDS011;57451;52.496;13.456;2022-10-16T02:17:48;4.28;;;2.05;;
70078;SDS011;57451;52.496;13.456;2022-10-16T02:20:16;4.97;;;2.20;;
70078;SDS011;57451;52.496;13.456;2022-10-16T02:22:45;4.97;;;1.92;;
70078;SDS011;57451;52.496;13.456;2022-10-16T02:25:17;4.10;;;2.00;;
70078;SDS011;57451;52.496;13.456;2022-10-16T02:27:51;5.57;;;2.25;;
70078;SDS011;57451;52.496;13.456;2022-10-16T02:30:24;3.92;;;1.98;;
70078;SDS011;57451;52.496;13.456;2022-10-16T02:32:54;4.87;;;2.00;;
70078;SDS011;57451;52.496;13.456;2022-10-16T02:35:25;9.30;;;2.05;;
70078;SDS011;57451;52.496;13.456;2022-10-16T02:37:54;4.07;;;2.00;;
70078;SDS011;57451;52.496;13.456;2022-10-16T02:40:23;3.88;;;2.00;;
70078;SDS011;57451;52.496;13.456;2022-10-16T02:42:53;4.95;;;2.20;;
70078;SDS011;57451;52.496;13.456;2022-10-16T02:45:21;4.57;;;2.27;;
70078;SDS011;57451;52.496;13.456;2022-10-16T02:47:49;3.67;;;1.98;;
70078;SDS011;57451;52.496;13.456;2022-10-16T02:50:17;6.43;;;2.33;;
70078;SDS011;57451;52.496;13.456;2022-10-16T02:52:44;6.20;;;2.20;;
70078;SDS011;57451;52.496;13.456;2022-10-16T02:55:12;4.50;;;2.00;;
70078;SDS011;57451;52.496;13.456;2022-10-16T02:57:39;4.13;;;1.97;;
70078;SDS011;57451;52.496;13.456;2022-10-16T03:00:09;4.38;;;1.88;;
70078;SDS011;57451;52.496;13.456;2022-10-16T03:02:39;4.88;;;1.80;;
70078;SDS011;57451;52.496;13.456;2022-10-16T03:05:07;5.30;;;1.90;;
70078;SDS011;57451;52.496;13.456;2022-10-16T03:07:36;4.13;;;1.83;;
70078;SDS011;57451;52.496;13.456;2022-10-16T03:10:04;4.13;;;1.83;;
70078;SDS011;57451;52.496;13.456;2022-10-16T03:12:32;5.18;;;1.80;;
70078;SDS011;57451;52.496;13.456;2022-10-16T03:14:59;3.80;;;1.95;;
70078;SDS011;57451;52.496;13.456;2022-10-16T03:17:28;3.90;;;2.10;;
70078;SDS011;57451;52.496;13.456;2022-10-16T03:19:56;4.47;;;2.00;;
70078;SDS011;57451;52.496;13.456;2022-10-16T03:22:23;5.27;;;2.03;;
70078;SDS011;57451;52.496;13.456;2022-10-16T03:24:51;3.58;;;1.92;;
70078;SDS011;57451;52.496;13.456;2022-10-16T03:27:18;3.47;;;1.70;;
70078;SDS011;57451;52.496;13.456;2022-10-16T03:29:45;5.20;;;1.95;;
70078;SDS011;57451;52.496;13.456;2022-10-16T03:32:13;4.75;;;1.80;;
70078;SDS011;57451;52.496;13.456;2022-10-16T03:34:42;4.63;;;1.60;;
70078;SDS011;57451;52.496;13.456;2022-10-16T03:37:09;3.53;;;1.90;;
70078;SDS011;57451;52.496;13.456;2022-10-16T03:39:37;4.65;;;1.95;;
70078;SDS011;57451;52.496;13.456;2022-10-16T03:42:04;3.80;;;1.80;;
70078;SDS011;57451;52.496;13.456;2022-10-16T03:44:32;3.60;;;1.75;;
70078;SDS011;57451;52.496;13.456;2022-10-16T03:46:59;4.77;;;1.80;;
70078;SDS011;57451;52.496;13.456;2022-10-16T03:49:26;5.13;;;2.17;;
70078;SDS011;57451;52.496;13.456;2022-10-16T03:51:55;3.85;;;1.70;;
70078;SDS011;57451;52.496;13.456;2022-10-16T03:54:23;3.75;;;1.58;;
70078;SDS011;57451;52.496;13.456;2022-10-16T03:56:50;6.07;;;1.88;;
70078;SDS011;57451;52.496;13.456;2022-10-16T03:59:17;5.40;;;2.13;;
70078;SDS011;57451;52.496;13.456;2022-10-16T04:01:45;3.25;;;1.65;;
70078;SDS011;57451;52.496;13.456;2022-10-16T04:04:12;4.65;;;2.20;;
70078;SDS011;57451;52.496;13.456;2022-10-16T04:06:39;4.10;;;2.10;;
70078;SDS011;57451;52.496;13.456;2022-10-16T04:09:08;3.95;;;1.77;;
70078;SDS011;57451;52.496;13.456;2022-10-16T04:11:36;4.30;;;1.87;;
70078;SDS011;57451;52.496;13.456;2022-10-16T04:14:03;3.40;;;1.58;;
70078;SDS011;57451;52.496;13.456;2022-10-16T04:16:30;3.65;;;1.75;;
70078;SDS011;57451;52.496;13.456;2022-10-16T04:18:58;4.28;;;1.90;;
70078;SDS011;57451;52.496;13.456;2022-10-16T04:21:26;3.95;;;1.80;;
70078;SDS011;57451;52.496;13.456;2022-10-16T04:23:53;5.17;;;1.90;;
70078;SDS011;57451;52.496;13.456;2022-10-16T04:26:22;4.63;;;2.00;;
70078;SDS011;57451;52.496;13.456;2022-10-16T04:28:49;4.30;;;2.10;;
70078;SDS011;57451;52.496;13.456;2022-10-16T04:31:17;3.63;;;1.90;;
70078;SDS011;57451;52.496;13.456;2022-10-16T04:33:44;4.82;;;2.20;;
70078;SDS011;57451;52.496;13.456;2022-10-16T04:36:12;3.87;;;2.10;;
70078;SDS011;57451;52.496;13.456;2022-10-16T04:38:39;5.22;;;2.17;;
70078;SDS011;57451;52.496;13.456;2022-10-16T04:41:07;4.15;;;2.25;;
70078;SDS011;57451;52.496;13.456;2022-10-16T04:43:36;4.60;;;2.15;;
70078;SDS011;57451;52.496;13.456;2022-10-16T04:46:03;5.55;;;2.53;;
70078;SDS011;57451;52.496;13.456;2022-10-16T04:48:31;5.33;;;2.47;;
70078;SDS011;57451;52.496;13.456;2022-10-16T04:50:59;4.28;;;2.22;;
70078;SDS011;57451;52.496;13.456;2022-10-16T04:53:26;5.38;;;2.50;;
70078;SDS011;57451;52.496;13.456;2022-10-16T04:55:54;4.28;;;2.20;;
70078;SDS011;57451;52.496;13.456;2022-10-16T04:58:22;13.73;;;2.45;;
70078;SDS011;57451;52.496;13.456;2022-10-16T05:00:51;9.53;;;2.20;;
70078;SDS011;57451;52.496;13.456;2022-10-16T05:03:18;6.15;;;2.20;;
70078;SDS011;57451;52.496;13.456;2022-10-16T05:05:46;5.25;;;2.17;;
70078;SDS011;57451;52.496;13.456;2022-10-16T05:08:14;6.10;;;2.50;;
70078;SDS011;57451;52.496;13.456;2022-10-16T05:10:43;4.47;;;2.15;;
70078;SDS011;57451;52.496;13.456;2022-10-16T05:13:11;5.57;;;2.43;;
70078;SDS011;57451;52.496;13.456;2022-10-16T05:15:39;4.38;;;2.40;;
70078;SDS011;57451;52.496;13.456;2022-10-16T05:18:08;4.07;;;2.20;;
70078;SDS011;57451;52.496;13.456;2022-10-16T05:20:35;4.25;;;2.20;;
70078;SDS011;57451;52.496;13.456;2022-10-16T05:23:02;4.50;;;2.30;;
70078;SDS011;57451;52.496;13.456;2022-10-16T05:25:30;4.37;;;2.27;;
70078;SDS011;57451;52.496;13.456;2022-10-16T05:27:57;4.20;;;2.15;;
70078;SDS011;57451;52.496;13.456;2022-10-16T05:30:25;6.53;;;2.50;;
70078;SDS011;57451;52.496;13.456;2022-10-16T05:32:52;4.50;;;2.42;;
70078;SDS011;57451;52.496;13.456;2022-10-16T05:35:21;5.68;;;2.53;;
70078;SDS011;57451;52.496;13.456;2022-10-16T05:37:49;4.63;;;2.17;;
70078;SDS011;57451;52.496;13.456;2022-10-16T05:40:16;5.85;;;2.10;;
70078;SDS011;57451;52.496;13.456;2022-10-16T05:42:43;5.32;;;2.25;;
70078;SDS011;57451;52.496;13.456;2022-10-16T05:45:11;4.20;;;2.15;;
70078;SDS011;57451;52.496;13.456;2022-10-16T05:47:39;4.78;;;2.33;;
70078;SDS011;57451;52.496;13.456;2022-10-16T05:50:07;3.90;;;2.10;;
70078;SDS011;57451;52.496;13.456;2022-10-16T05:52:36;4.63;;;2.20;;
70078;SDS011;57451;52.496;13.456;2022-10-16T05:55:04;4.75;;;2.05;;
70078;SDS011;57451;52.496;13.456;2022-10-16T05:57:32;3.95;;;2.00;;
70078;SDS011;57451;52.496;13.456;2022-10-16T05:59:59;3.83;;;2.00;;
70078;SDS011;57451;52.496;13.456;2022-10-16T06:02:26;4.47;;;2.50;;
70078;SDS011;57451;52.496;13.456;2022-10-16T06:04:54;4.80;;;2.50;;
70078;SDS011;57451;52.496;13.456;2022-10-16T06:07:22;4.78;;;2.20;;
70078;SDS011;57451;52.496;13.456;2022-10-16T06:09:51;4.88;;;2.50;;
70078;SDS011;57451;52.496;13.456;2022-10-16T06:12:20;4.55;;;2.28;;
70078;SDS011;57451;52.496;13.456;2022-10-16T06:14:47;6.43;;;2.40;;
70078;SDS011;57451;52.496;13.456;2022-10-16T06:17:15;4.93;;;2.40;;
70078;SDS011;57451;52.496;13.456;2022-10-16T06:19:42;5.38;;;2.75;;
70078;SDS011;57451;52.496;13.456;2022-10-16T06:22:10;4.63;;;2.60;;
70078;SDS011;57451;52.496;13.456;2022-10-16T06:24:38;4.88;;;2.53;;
70078;SDS011;57451;52.496;13.456;2022-10-16T06:27:06;4.40;;;2.50;;
70078;SDS011;57451;52.496;13.456;2022-10-16T06:29:34;5.55;;;2.65;;
70078;SDS011;57451;52.496;13.456;2022-10-16T06:32:01;5.47;;;2.80;;
70078;SDS011;57451;52.496;13.456;2022-10-16T06:34:29;7.05;;;3.22;;
70078;SDS011;57451;52.496;13.456;2022-10-16T06:36:56;5.72;;;2.92;;
70078;SDS011;57451;52.496;13.456;2022-10-16T06:39:23;5.57;;;2.60;;
70078;SDS011;57451;52.496;13.456;2022-10-16T06:41:51;4.70;;;2.45;;
70078;SDS011;57451;52.496;13.456;2022-10-16T06:44:21;5.55;;;2.90;;
70078;SDS011;57451;52.496;13.456;2022-10-16T06:46:48;6.28;;;2.53;;
70078;SDS011;57451;52.496;13.456;2022-10-16T06:49:16;4.65;;;2.47;;
70078;SDS011;57451;52.496;13.456;2022-10-16T06:51:48;5.43;;;2.43;;
70078;SDS011;57451;52.496;13.456;2022-10-16T06:54:15;4.38;;;2.35;;
70078;SDS011;57451;52.496;13.456;2022-10-16T06:56:44;5.47;;;2.92;;
70078;SDS011;57451;52.496;13.456;2022-10-16T06:59:12;4.35;;;2.40;;
70078;SDS011;57451;52.496;13.456;2022-10-16T07:01:40;4.80;;;2.22;;
70078;SDS011;57451;52.496;13.456;2022-10-16T07:04:08;3.90;;;2.30;;
70078;SDS011;57451;52.496;13.456;2022-10-16T07:06:35;4.18;;;2.35;;
70078;SDS011;57451;52.496;13.456;2022-10-16T07:09:04;5.05;;;2.30;;
70078;SDS011;57451;52.496;13.456;2022-10-16T07:11:32;4.38;;;2.60;;
70078;SDS011;57451;52.496;13.456;2022-10-16T07:14:00;4.68;;;2.35;;
70078;SDS011;57451;52.496;13.456;2022-10-16T07:16:28;4.87;;;2.53;;
70078;SDS011;57451;52.496;13.456;2022-10-16T07:18:58;4.25;;;2.38;;
70078;SDS011;57451;52.496;13.456;2022-10-16T07:21:28;5.30;;;2.42;;
70078;SDS011;57451;52.496;13.456;2022-10-16T07:23:58;4.30;;;2.50;;
70078;SDS011;57451;52.496;13.456;2022-10-16T07:26:29;5.78;;;2.45;;
70078;SDS011;57451;52.496;13.456;2022-10-16T07:28:57;3.87;;;2.07;;
70078;SDS011;57451;52.496;13.456;2022-10-16T07:31:25;6.63;;;2.30;;
70078;SDS011;57451;52.496;13.456;2022-10-16T07:33:53;5.13;;;2.10;;
70078;SDS011;57451;52.496;13.456;2022-10-16T07:36:22;4.88;;;2.15;;
70078;SDS011;57451;52.496;13.456;2022-10-16T07:38:49;3.88;;;1.90;;
70078;SDS011;57451;52.496;13.456;2022-10-16T07:41:22;3.90;;;2.00;;
70078;SDS011;57451;52.496;13.456;2022-10-16T07:43:51;3.83;;;2.00;;
70078;SDS011;57451;52.496;13.456;2022-10-16T07:46:20;4.72;;;2.13;;
70078;SDS011;57451;52.496;13.456;2022-10-16T07:48:48;5.05;;;2.00;;
70078;SDS011;57451;52.496;13.456;2022-10-16T07:51:18;4.88;;;1.77;;
70078;SDS011;57451;52.496;13.456;2022-10-16T07:53:47;4.43;;;1.80;;
70078;SDS011;57451;52.496;13.456;2022-10-16T07:56:15;4.55;;;1.83;;
70078;SDS011;57451;52.496;13.456;2022-10-16T07:58:44;4.82;;;1.75;;
70078;SDS011;57451;52.496;13.456;2022-10-16T08:01:12;5.10;;;2.20;;
70078;SDS011;57451;52.496;13.456;2022-10-16T08:03:41;3.97;;;1.70;;
70078;SDS011;57451;52.496;13.456;2022-10-16T08:06:12;3.47;;;1.53;;
70078;SDS011;57451;52.496;13.456;2022-10-16T08:08:40;3.75;;;1.60;;
70078;SDS011;57451;52.496;13.456;2022-10-16T08:11:09;3.15;;;1.40;;
70078;SDS011;57451;52.496;13.456;2022-10-16T08:13:36;3.92;;;1.52;;
70078;SDS011;57451;52.496;13.456;2022-10-16T08:16:04;4.38;;;1.50;;
70078;SDS011;57451;52.496;13.456;2022-10-16T08:18:34;3.53;;;1.50;;
70078;SDS011;57451;52.496;13.456;2022-10-16T08:21:03;3.28;;;1.50;;
70078;SDS011;57451;52.496;13.456;2022-10-16T08:23:32;3.38;;;1.50;;
70078;SDS011;57451;52.496;13.456;2022-10-16T08:26:02;3.50;;;1.50;;
70078;SDS011;57451;52.496;13.456;2022-10-16T08:28:33;3.70;;;1.60;;
70078;SDS011;57451;52.496;13.456;2022-10-16T08:31:04;4.77;;;1.60;;
70078;SDS011;57451;52.496;13.456;2022-10-16T08:33:33;3.72;;;1.58;;
70078;SDS011;57451;52.496;13.456;2022-10-16T08:36:02;3.50;;;1.67;;
70078;SDS011;57451;52.496;13.456;2022-10-16T08:38:30;4.35;;;1.52;;
70078;SDS011;57451;52.496;13.456;2022-10-16T08:41:00;4.47;;;1.60;;
70078;SDS011;57451;52.496;13.456;2022-10-16T08:43:47;3.47;;;1.80;;
70078;SDS011;57451;52.496;13.456;2022-10-16T08:46:37;4.60;;;1.80;;
70078;SDS011;57451;52.496;13.456;2022-10-16T08:49:16;3.95;;;1.50;;
70078;SDS011;57451;52.496;13.456;2022-10-16T08:51:44;5.22;;;1.60;;
70078;SDS011;57451;52.496;13.456;2022-10-16T08:54:15;5.32;;;1.60;;
70078;SDS011;57451;52.496;13.456;2022-10-16T08:56:53;3.77;;;1.57;;
70078;SDS011;57451;52.496;13.456;2022-10-16T08:59:22;3.40;;;1.52;;
70078;SDS011;57451;52.496;13.456;2022-10-16T09:01:50;3.65;;;1.70;;
70078;SDS011;57451;52.496;13.456;2022-10-16T09:04:38;5.05;;;1.60;;
70078;SDS011;57451;52.496;13.456;2022-10-16T09:07:14;4.05;;;1.70;;
70078;SDS011;57451;52.496;13.456;2022-10-16T09:09:49;6.70;;;1.63;;
70078;SDS011;57451;52.496;13.456;2022-10-16T09:12:31;2.97;;;1.30;;
70078;SDS011;57451;52.496;13.456;2022-10-16T09:15:11;4.35;;;1.80;;
70078;SDS011;57451;52.496;13.456;2022-10-16T09:17:46;3.83;;;1.63;;
70078;SDS011;57451;52.496;13.456;2022-10-16T09:20:32;4.35;;;1.30;;
70078;SDS011;57451;52.496;13.456;2022-10-16T09:23:10;4.50;;;1.63;;
70078;SDS011;57451;52.496;13.456;2022-10-16T09:25:43;3.42;;;1.30;;
70078;SDS011;57451;52.496;13.456;2022-10-16T09:28:12;3.63;;;1.50;;
70078;SDS011;57451;52.496;13.456;2022-10-16T09:30:41;4.13;;;1.50;;
70078;SDS011;57451;52.496;13.456;2022-10-16T09:33:09;4.72;;;1.48;;
70078;SDS011;57451;52.496;13.456;2022-10-16T09:35:38;3.10;;;1.27;;
70078;SDS011;57451;52.496;13.456;2022-10-16T09:38:07;4.20;;;1.70;;
70078;SDS011;57451;52.496;13.456;2022-10-16T09:40:35;3.03;;;1.38;;
70078;SDS011;57451;52.496;13.456;2022-10-16T09:43:14;4.82;;;1.52;;
70078;SDS011;57451;52.496;13.456;2022-10-16T09:45:55;4.53;;;1.40;;
70078;SDS011;57451;52.496;13.456;2022-10-16T09:48:23;3.30;;;1.43;;
70078;SDS011;57451;52.496;13.456;2022-10-16T09:50:56;3.20;;;1.33;;
70078;SDS011;57451;52.496;13.456;2022-10-16T09:53:25;4.15;;;1.50;;
70078;SDS011;57451;52.496;13.456;2022-10-16T09:56:04;3.17;;;1.50;;
70078;SDS011;57451;52.496;13.456;2022-10-16T09:58:42;3.85;;;1.73;;
70078;SDS011;57451;52.496;13.456;2022-10-16T10:01:14;3.53;;;1.40;;
70078;SDS011;57451;52.496;13.456;2022-10-16T10:03:42;3.22;;;1.20;;
70078;SDS011;57451;52.496;13.456;2022-10-16T10:06:16;4.03;;;1.30;;
70078;SDS011;57451;52.496;13.456;2022-10-16T10:08:57;3.45;;;1.38;;
70078;SDS011;57451;52.496;13.456;2022-10-16T10:11:36;3.50;;;1.30;;
70078;SDS011;57451;52.496;13.456;2022-10-16T10:14:15;5.43;;;1.30;;
70078;SDS011;57451;52.496;13.456;2022-10-16T10:16:47;4.03;;;1.38;;
70078;SDS011;57451;52.496;13.456;2022-10-16T10:19:16;4.10;;;1.40;;
70078;SDS011;57451;52.496;13.456;2022-10-16T10:21:44;3.97;;;1.48;;
70078;SDS011;57451;52.496;13.456;2022-10-16T10:24:12;3.22;;;1.55;;
70078;SDS011;57451;52.496;13.456;2022-10-16T10:26:41;3.83;;;1.40;;
70078;SDS011;57451;52.496;13.456;2022-10-16T10:29:18;6.32;;;1.50;;
70078;SDS011;57451;52.496;13.456;2022-10-16T10:31:59;4.18;;;1.40;;
70078;SDS011;57451;52.496;13.456;2022-10-16T10:34:37;5.07;;;1.45;;
70078;SDS011;57451;52.496;13.456;2022-10-16T10:37:25;3.90;;;1.50;;
70078;SDS011;57451;52.496;13.456;2022-10-16T10:40:04;3.80;;;1.40;;
70078;SDS011;57451;52.496;13.456;2022-10-16T10:42:40;3.78;;;1.15;;
70078;SDS011;57451;52.496;13.456;2022-10-16T10:45:17;3.03;;;1.40;;
70078;SDS011;57451;52.496;13.456;2022-10-16T10:47:55;4.13;;;1.60;;
70078;SDS011;57451;52.496;13.456;2022-10-16T10:50:31;3.58;;;1.30;;
70078;SDS011;57451;52.496;13.456;2022-10-16T10:53:05;3.27;;;1.37;;
70078;SDS011;57451;52.496;13.456;2022-10-16T10:55:43;3.20;;;1.25;;
70078;SDS011;57451;52.496;13.456;2022-10-16T10:58:27;3.63;;;1.33;;
70078;SDS011;57451;52.496;13.456;2022-10-16T11:01:12;3.83;;;1.25;;
70078;SDS011;57451;52.496;13.456;2022-10-16T11:03:53;3.33;;;1.42;;
70078;SDS011;57451;52.496;13.456;2022-10-16T11:06:42;3.37;;;1.33;;
70078;SDS011;57451;52.496;13.456;2022-10-16T11:09:15;3.08;;;1.40;;
70078;SDS011;57451;52.496;13.456;2022-10-16T11:11:47;2.88;;;1.20;;
70078;SDS011;57451;52.496;13.456;2022-10-16T11:14:18;3.28;;;1.33;;
70078;SDS011;57451;52.496;13.456;2022-10-16T11:16:50;2.80;;;1.25;;
70078;SDS011;57451;52.496;13.456;2022-10-16T11:19:25;3.37;;;1.17;;
70078;SDS011;57451;52.496;13.456;2022-10-16T11:22:01;3.13;;;1.20;;
70078;SDS011;57451;52.496;13.456;2022-10-16T11:24:35;3.13;;;1.10;;
70078;SDS011;57451;52.496;13.456;2022-10-16T11:27:09;3.53;;;1.33;;
70078;SDS011;57451;52.496;13.456;2022-10-16T11:29:44;4.25;;;1.40;;
70078;SDS011;57451;52.496;13.456;2022-10-16T11:32:19;3.57;;;1.40;;
70078;SDS011;57451;52.496;13.456;2022-10-16T11:34:53;3.53;;;1.40;;
70078;SDS011;57451;52.496;13.456;2022-10-16T11:37:27;3.00;;;1.23;;
70078;SDS011;57451;52.496;13.456;2022-10-16T11:40:03;2.88;;;1.08;;
70078;SDS011;57451;52.496;13.456;2022-10-16T11:42:46;3.30;;;1.30;;
70078;SDS011;57451;52.496;13.456;2022-10-16T11:45:23;3.03;;;1.00;;
70078;SDS011;57451;52.496;13.456;2022-10-16T11:47:57;2.83;;;0.98;;
70078;SDS011;57451;52.496;13.456;2022-10-16T11:50:31;3.83;;;1.40;;
70078;SDS011;57451;52.496;13.456;2022-10-16T11:53:04;2.78;;;1.05;;
70078;SDS011;57451;52.496;13.456;2022-10-16T11:55:41;3.72;;;1.10;;
70078;SDS011;57451;52.496;13.456;2022-10-16T11:58:16;2.93;;;1.10;;
70078;SDS011;57451;52.496;13.456;2022-10-16T12:00:54;3.60;;;1.17;;
70078;SDS011;57451;52.496;13.456;2022-10-16T12:03:27;3.50;;;1.20;;
70078;SDS011;57451;52.496;13.456;2022-10-16T12:06:02;3.22;;;1.13;;
70078;SDS011;57451;52.496;13.456;2022-10-16T12:08:38;3.15;;;1.10;;
70078;SDS011;57451;52.496;13.456;2022-10-16T12:11:07;3.57;;;1.00;;
70078;SDS011;57451;52.496;13.456;2022-10-16T12:13:37;3.75;;;1.10;;
70078;SDS011;57451;52.496;13.456;2022-10-16T12:16:07;2.42;;;0.93;;
70078;SDS011;57451;52.496;13.456;2022-10-16T12:18:47;3.42;;;1.25;;
70078;SDS011;57451;52.496;13.456;2022-10-16T12:21:17;3.00;;;1.10;;
70078;SDS011;57451;52.496;13.456;2022-10-16T12:23:46;3.77;;;1.13;;
70078;SDS011;57451;52.496;13.456;2022-10-16T12:26:23;3.20;;;1.10;;
70078;SDS011;57451;52.496;13.456;2022-10-16T12:28:52;4.25;;;1.30;;
70078;SDS011;57451;52.496;13.456;2022-10-16T12:31:20;3.30;;;1.25;;
70078;SDS011;57451;52.496;13.456;2022-10-16T12:33:57;4.80;;;1.33;;
70078;SDS011;57451;52.496;13.456;2022-10-16T12:36:28;3.23;;;1.20;;
70078;SDS011;57451;52.496;13.456;2022-10-16T12:38:57;5.18;;;1.13;;
70078;SDS011;57451;52.496;13.456;2022-10-16T12:41:27;2.70;;;1.20;;
70078;SDS011;57451;52.496;13.456;2022-10-16T12:43:57;2.95;;;1.10;;
70078;SDS011;57451;52.496;13.456;2022-10-16T12:46:37;2.80;;;1.10;;
70078;SDS011;57451;52.496;13.456;2022-10-16T12:49:14;2.73;;;1.10;;
70078;SDS011;57451;52.496;13.456;2022-10-16T12:51:50;3.03;;;1.00;;
70078;SDS011;57451;52.496;13.456;2022-10-16T12:54:18;3.15;;;1.20;;
70078;SDS011;57451;52.496;13.456;2022-10-16T13:00:04;3.28;;;1.13;;
70078;SDS011;57451;52.496;13.456;2022-10-16T13:02:55;3.20;;;1.10;;
70078;SDS011;57451;52.496;13.456;2022-10-16T13:05:42;3.03;;;1.30;;
70078;SDS011;57451;52.496;13.456;2022-10-16T13:08:25;3.25;;;1.10;;
70078;SDS011;57451;52.496;13.456;2022-10-16T13:11:07;4.38;;;1.38;;
70078;SDS011;57451;52.496;13.456;2022-10-16T13:13:49;4.00;;;1.30;;
70078;SDS011;57451;52.496;13.456;2022-10-16T13:16:53;3.37;;;0.80;;
70078;SDS011;57451;52.496;13.456;2022-10-16T13:19:38;2.60;;;0.93;;
70078;SDS011;57451;52.496;13.456;2022-10-16T13:22:19;3.45;;;1.00;;
70078;SDS011;57451;52.496;13.456;2022-10-16T13:25:13;5.25;;;1.10;;
70078;SDS011;57451;52.496;13.456;2022-10-16T13:27:59;2.75;;;1.20;;
70078;SDS011;57451;52.496;13.456;2022-10-16T13:30:50;4.38;;;1.30;;
70078;SDS011;57451;52.496;13.456;2022-10-16T13:33:39;3.55;;;1.75;;
70078;SDS011;57451;52.496;13.456;2022-10-16T13:36:19;3.85;;;1.45;;
70078;SDS011;57451;52.496;13.456;2022-10-16T13:38:50;3.70;;;1.00;;
70078;SDS011;57451;52.496;13.456;2022-10-16T13:41:46;3.75;;;1.20;;
70078;SDS011;57451;52.496;13.456;2022-10-16T13:44:39;2.65;;;1.00;;
70078;SDS011;57451;52.496;13.456;2022-10-16T13:47:29;4.07;;;1.80;;
70078;SDS011;57451;52.496;13.456;2022-10-16T13:51:18;3.30;;;1.30;;
70078;SDS011;57451;52.496;13.456;2022-10-16T13:54:03;2.72;;;0.98;;
70078;SDS011;57451;52.496;13.456;2022-10-16T13:57:12;2.92;;;1.08;;
70078;SDS011;57451;52.496;13.456;2022-10-16T14:00:18;3.53;;;1.10;;
70078;SDS011;57451;52.496;13.456;2022-10-16T14:03:03;6.05;;;1.15;;
70078;SDS011;57451;52.496;13.456;2022-10-16T14:06:49;4.65;;;1.13;;
70078;SDS011;57451;52.496;13.456;2022-10-16T14:10:20;3.55;;;1.40;;
70078;SDS011;57451;52.496;13.456;2022-10-16T14:13:28;2.80;;;1.13;;
70078;SDS011;57451;52.496;13.456;2022-10-16T14:16:31;3.55;;;1.15;;
70078;SDS011;57451;52.496;13.456;2022-10-16T14:19:32;3.70;;;1.60;;
70078;SDS011;57451;52.496;13.456;2022-10-16T14:22:11;2.90;;;1.38;;
70078;SDS011;57451;52.496;13.456;2022-10-16T14:25:20;6.90;;;1.38;;
70078;SDS011;57451;52.496;13.456;2022-10-16T14:27:58;3.40;;;1.20;;
70078;SDS011;57451;52.496;13.456;2022-10-16T14:30:28;3.95;;;1.20;;
70078;SDS011;57451;52.496;13.456;2022-10-16T14:33:02;3.22;;;1.20;;
70078;SDS011;57451;52.496;13.456;2022-10-16T14:35:39;4.65;;;1.00;;
70078;SDS011;57451;52.496;13.456;2022-10-16T14:38:14;3.55;;;1.30;;
70078;SDS011;57451;52.496;13.456;2022-10-16T14:40:50;3.28;;;1.20;;
70078;SDS011;57451;52.496;13.456;2022-10-16T14:43:20;5.73;;;1.70;;
70078;SDS011;57451;52.496;13.456;2022-10-16T14:45:54;3.47;;;1.40;;
70078;SDS011;57451;52.496;13.456;2022-10-16T14:48:27;3.75;;;1.38;;
70078;SDS011;57451;52.496;13.456;2022-10-16T14:50:57;3.78;;;1.27;;
70078;SDS011;57451;52.496;13.456;2022-10-16T14:53:24;3.70;;;1.40;;
70078;SDS011;57451;52.496;13.456;2022-10-16T14:55:58;4.10;;;1.70;;
70078;SDS011;57451;52.496;13.456;2022-10-16T14:58:32;8.43;;;2.50;;
70078;SDS011;57451;52.496;13.456;2022-10-16T15:00:59;3.45;;;1.30;;
70078;SDS011;57451;52.496;13.456;2022-10-16T15:03:27;3.33;;;1.30;;
70078;SDS011;57451;52.496;13.456;2022-10-16T15:05:54;3.47;;;1.30;;
70078;SDS011;57451;52.496;13.456;2022-10-16T15:08:22;4.17;;;1.80;;
70078;SDS011;57451;52.496;13.456;2022-10-16T15:10:49;3.90;;;1.70;;
70078;SDS011;57451;52.496;13.456;2022-10-16T15:13:19;3.03;;;1.27;;